Time;durP1;ratioP1;P1;durP2;ratioP2;P2;SDS_P1;SDS_P2;PMS_P1;PMS_P2;Temp;Humidity;BMP_temperature;BMP_pressure;BME280_temperature;BME280_humidity;BME280_pressure;Samples;Min_cycle;Max_cycle;Signal;HPM_P1;HPM_P2
2023/04/11 00:00:51;;;;;;;5.57;1.93;;;7.90;99.90;;;;;;5054989;28;20033;-75
2023/04/11 00:03:18;;;;;;;3.90;1.43;;;7.90;99.90;;;;;;5053671;28;20094;-75
2023/04/11 00:05:45;;;;;;;8.80;2.20;;;7.80;99.90;;;;;;5053570;28;20049;-75
2023/04/11 00:08:11;;;;;;;8.20;2.03;;;7.90;99.90;;;;;;5052632;28;20045;-75
2023/04/11 00:10:36;;;;;;;3.83;1.40;;;7.90;99.90;;;;;;5053166;28;20135;-74
2023/04/11 00:13:02;;;;;;;7.60;2.10;;;7.80;99.90;;;;;;5051290;28;20048;-75
2023/04/11 00:15:28;;;;;;;5.57;2.30;;;7.80;99.90;;;;;;5052876;28;20075;-75
2023/04/11 00:17:54;;;;;;;5.00;1.50;;;7.80;99.90;;;;;;5053031;28;20056;-75
2023/04/11 00:20:20;;;;;;;8.37;1.90;;;7.80;99.90;;;;;;5069415;28;20033;-75
2023/04/11 00:22:46;;;;;;;7.27;2.00;;;7.80;99.90;;;;;;5053002;28;20064;-74
2023/04/11 00:25:12;;;;;;;6.07;1.80;;;7.80;99.90;;;;;;5053851;28;20041;-75
2023/04/11 00:27:38;;;;;;;6.53;1.70;;;7.80;99.90;;;;;;5052504;28;20068;-75
2023/04/11 00:30:05;;;;;;;7.23;1.90;;;7.90;99.90;;;;;;5052508;28;20067;-75
2023/04/11 00:32:31;;;;;;;3.10;1.43;;;7.80;99.90;;;;;;5052353;28;20095;-75
2023/04/11 00:34:57;;;;;;;4.93;1.97;;;7.80;99.90;;;;;;5054778;28;20048;-76
2023/04/11 00:37:22;;;;;;;7.30;1.93;;;7.80;99.90;;;;;;5053703;28;20072;-75
2023/04/11 00:39:49;;;;;;;4.13;1.60;;;7.70;99.90;;;;;;5054555;28;20074;-75
2023/04/11 00:42:15;;;;;;;4.17;1.50;;;7.70;99.90;;;;;;5051697;28;20029;-75
2023/04/11 00:44:41;;;;;;;7.70;1.83;;;7.60;99.90;;;;;;5051883;28;20037;-75
2023/04/11 00:47:07;;;;;;;6.50;1.73;;;7.50;99.90;;;;;;5053342;28;20385;-75
2023/04/11 00:49:34;;;;;;;5.37;1.97;;;7.50;99.90;;;;;;5053935;28;20048;-75
2023/04/11 00:52:01;;;;;;;5.60;1.70;;;7.40;99.90;;;;;;5052286;28;20200;-75
2023/04/11 00:54:29;;;;;;;4.23;1.50;;;7.40;99.90;;;;;;5052890;28;20136;-75
2023/04/11 00:57:00;;;;;;;4.50;1.50;;;7.40;99.90;;;;;;5066706;28;20071;-75
2023/04/11 00:59:28;;;;;;;4.38;1.88;;;7.40;99.90;;;;;;5051177;28;20044;-75
2023/04/11 01:01:54;;;;;;;4.63;1.70;;;7.40;99.90;;;;;;5051962;28;20124;-75
2023/04/11 01:04:20;;;;;;;6.07;2.03;;;7.40;99.90;;;;;;5051596;28;20051;-75
2023/04/11 01:06:50;;;;;;;5.50;1.57;;;7.30;99.90;;;;;;5052812;28;20041;-75
2023/04/11 01:09:16;;;;;;;7.23;2.67;;;7.30;99.90;;;;;;5054050;28;20037;-75
2023/04/11 01:11:42;;;;;;;6.00;2.27;;;7.30;99.90;;;;;;5051327;28;20044;-75
2023/04/11 01:14:08;;;;;;;6.33;2.33;;;7.30;99.90;;;;;;5052260;28;20055;-75
2023/04/11 01:16:33;;;;;;;4.90;2.00;;;7.30;99.90;;;;;;5052544;28;20041;-75
2023/04/11 01:18:59;;;;;;;7.67;2.13;;;7.20;99.90;;;;;;5033338;28;20055;-76
2023/04/11 01:21:26;;;;;;;6.40;1.90;;;7.20;99.90;;;;;;5052955;28;20041;-75
2023/04/11 01:23:53;;;;;;;7.33;2.83;;;7.30;99.90;;;;;;5052944;28;20037;-75
2023/04/11 01:26:19;;;;;;;6.70;2.30;;;7.30;99.90;;;;;;5053163;28;20500;-75
2023/04/11 01:28:45;;;;;;;7.73;2.50;;;7.30;99.90;;;;;;5052160;28;20049;-75
2023/04/11 01:31:10;;;;;;;4.83;2.20;;;7.30;99.90;;;;;;5035621;28;20619;-74
2023/04/11 01:33:36;;;;;;;5.70;2.60;;;7.30;99.90;;;;;;5048498;28;20118;-74
2023/04/11 01:36:02;;;;;;;8.50;3.20;;;7.30;99.90;;;;;;5052595;28;20033;-75
2023/04/11 01:38:28;;;;;;;6.37;2.77;;;7.30;99.90;;;;;;5052628;28;20059;-76
2023/04/11 01:40:56;;;;;;;6.80;2.60;;;7.30;99.90;;;;;;5051620;28;20060;-75
2023/04/11 01:43:22;;;;;;;7.43;2.87;;;7.20;99.90;;;;;;5049826;28;20053;-75
2023/04/11 01:45:48;;;;;;;8.47;2.60;;;7.20;99.90;;;;;;5052483;28;20049;-75
2023/04/11 01:48:15;;;;;;;10.50;3.00;;;7.20;99.90;;;;;;5053103;28;20098;-76
2023/04/11 01:50:40;;;;;;;6.20;2.67;;;7.20;99.90;;;;;;5052264;28;20591;-75
2023/04/11 01:53:06;;;;;;;7.90;2.73;;;7.10;99.90;;;;;;5052592;28;20154;-75
2023/04/11 01:55:32;;;;;;;10.20;2.87;;;7.10;99.90;;;;;;5051341;28;20454;-75
2023/04/11 01:57:57;;;;;;;5.73;2.57;;;7.10;99.90;;;;;;5052594;28;20081;-75
2023/04/11 02:00:23;;;;;;;9.00;2.60;;;7.00;99.90;;;;;;5051525;28;20049;-75
2023/04/11 02:02:49;;;;;;;7.57;2.60;;;7.00;99.90;;;;;;5050536;28;20385;-75
2023/04/11 02:05:15;;;;;;;5.37;2.70;;;7.00;99.90;;;;;;5053136;28;20075;-75
2023/04/11 02:07:41;;;;;;;7.87;2.50;;;7.00;99.90;;;;;;5052240;28;20045;-75
2023/04/11 02:10:07;;;;;;;6.93;2.70;;;7.00;99.90;;;;;;5051202;28;20044;-75
2023/04/11 02:12:32;;;;;;;9.20;3.40;;;7.00;99.90;;;;;;5051999;28;20048;-75
2023/04/11 02:14:58;;;;;;;8.47;2.90;;;7.10;99.90;;;;;;5052058;28;20100;-75
2023/04/11 02:17:25;;;;;;;7.93;2.80;;;7.10;99.90;;;;;;5051201;28;20551;-74
2023/04/11 02:19:51;;;;;;;8.90;2.83;;;7.20;99.90;;;;;;5052452;28;20033;-75
2023/04/11 02:22:17;;;;;;;9.90;3.50;;;7.20;99.90;;;;;;5052594;28;20048;-75
2023/04/11 02:24:42;;;;;;;12.10;3.50;;;7.20;99.90;;;;;;5048722;28;20106;-75
2023/04/11 02:27:09;;;;;;;10.13;3.40;;;7.20;99.90;;;;;;5050937;28;20051;-75
2023/04/11 02:29:35;;;;;;;8.43;3.83;;;7.20;99.90;;;;;;5050954;28;20049;-75
2023/04/11 02:32:01;;;;;;;6.83;3.30;;;7.30;99.90;;;;;;5052005;28;20052;-75
2023/04/11 02:34:27;;;;;;;11.27;3.17;;;7.30;99.90;;;;;;5050614;28;20108;-75
2023/04/11 02:36:53;;;;;;;11.20;3.30;;;7.30;99.90;;;;;;5051142;28;20565;-75
2023/04/11 02:39:22;;;;;;;6.57;2.97;;;7.30;99.90;;;;;;5052011;28;20061;-75
2023/04/11 02:41:48;;;;;;;7.00;2.80;;;7.30;99.90;;;;;;5055599;28;20465;-75
2023/04/11 02:44:14;;;;;;;4.93;2.63;;;7.30;99.90;;;;;;5056279;28;20076;-74
2023/04/11 02:46:40;;;;;;;5.50;2.33;;;7.30;99.90;;;;;;5055855;28;20270;-74
2023/04/11 02:49:05;;;;;;;5.00;2.63;;;7.30;99.90;;;;;;5055879;28;20098;-74
2023/04/11 02:51:32;;;;;;;8.90;2.40;;;7.30;99.90;;;;;;5056003;28;20127;-75
2023/04/11 02:53:58;;;;;;;4.30;1.87;;;7.30;99.90;;;;;;5055548;28;20041;-74
2023/04/11 02:56:23;;;;;;;4.10;1.93;;;7.30;99.90;;;;;;5038796;28;20053;-75
2023/04/11 02:58:51;;;;;;;5.27;2.10;;;7.30;99.90;;;;;;5055597;28;20041;-75
2023/04/11 03:01:21;;;;;;;4.20;1.50;;;7.30;99.90;;;;;;5056123;28;20117;-75
2023/04/11 03:03:47;;;;;;;6.40;1.60;;;7.30;99.90;;;;;;5052929;28;20048;-75
2023/04/11 03:06:13;;;;;;;3.80;1.53;;;7.30;99.90;;;;;;5055936;28;20045;-75
2023/04/11 03:08:38;;;;;;;6.67;1.80;;;7.30;99.90;;;;;;5053976;28;20048;-74
2023/04/11 03:11:05;;;;;;;2.53;1.50;;;7.30;99.90;;;;;;5054575;28;20067;-74
2023/04/11 03:13:31;;;;;;;5.10;1.50;;;7.30;99.90;;;;;;5071669;28;20048;-75
2023/04/11 03:15:57;;;;;;;5.57;1.50;;;7.30;99.90;;;;;;5055455;28;20049;-75
2023/04/11 03:18:23;;;;;;;3.00;1.40;;;7.30;99.90;;;;;;5052242;28;20404;-74
2023/04/11 03:20:50;;;;;;;5.47;1.70;;;7.30;99.90;;;;;;5054971;28;20037;-75
2023/04/11 03:23:16;;;;;;;3.80;1.30;;;7.30;99.90;;;;;;5055826;28;20037;-75
2023/04/11 03:25:43;;;;;;;2.93;1.30;;;7.20;99.90;;;;;;5055185;28;20052;-75
2023/04/11 03:28:09;;;;;;;3.83;1.50;;;7.20;99.90;;;;;;5055460;28;20100;-75
2023/04/11 03:30:39;;;;;;;5.20;1.40;;;7.20;99.90;;;;;;5055417;28;20067;-75
2023/04/11 03:33:05;;;;;;;5.67;1.50;;;7.30;99.90;;;;;;5052441;28;20047;-75
2023/04/11 03:35:31;;;;;;;4.23;1.40;;;7.30;99.90;;;;;;5055530;28;20080;-75
2023/04/11 03:37:57;;;;;;;3.10;1.27;;;7.30;99.90;;;;;;5053150;28;20049;-75
2023/04/11 03:40:23;;;;;;;3.87;1.40;;;7.30;99.90;;;;;;5051282;28;20093;-75
2023/04/11 03:42:49;;;;;;;4.80;1.70;;;7.30;99.90;;;;;;5054901;28;20045;-76
2023/04/11 03:45:15;;;;;;;6.13;1.80;;;7.30;99.90;;;;;;5054594;28;20044;-76
2023/04/11 03:47:41;;;;;;;5.20;2.00;;;7.30;99.90;;;;;;5053513;28;20053;-75
2023/04/11 03:50:08;;;;;;;5.77;1.87;;;7.30;99.90;;;;;;5053512;28;20099;-75
2023/04/11 03:52:34;;;;;;;4.20;2.53;;;7.30;99.90;;;;;;5054885;28;20134;-75
2023/04/11 03:55:01;;;;;;;3.30;2.10;;;7.30;99.90;;;;;;5052795;28;20462;-75
2023/04/11 03:57:27;;;;;;;4.97;2.00;;;7.40;99.90;;;;;;5055398;28;20120;-76
2023/04/11 03:59:54;;;;;;;5.57;2.97;;;7.40;99.90;;;;;;5053686;28;20072;-75
2023/04/11 04:02:20;;;;;;;6.33;2.17;;;7.30;99.90;;;;;;5053430;28;20071;-75
2023/04/11 04:04:47;;;;;;;8.30;3.33;;;7.40;99.90;;;;;;5054903;28;20041;-74
2023/04/11 04:07:13;;;;;;;10.53;3.57;;;7.40;99.90;;;;;;5052921;28;20053;-75
2023/04/11 04:09:42;;;;;;;8.33;2.90;;;7.40;99.90;;;;;;5053581;28;20045;-75
2023/04/11 04:12:07;;;;;;;6.20;2.97;;;7.40;99.90;;;;;;5054158;28;20067;-75
2023/04/11 04:14:33;;;;;;;7.37;2.87;;;7.40;99.90;;;;;;5052426;28;20045;-75
2023/04/11 04:16:59;;;;;;;10.43;3.10;;;7.40;99.90;;;;;;5053186;28;20079;-75
2023/04/11 04:19:25;;;;;;;8.40;3.00;;;7.40;99.90;;;;;;5054661;28;20347;-74
2023/04/11 04:21:50;;;;;;;9.13;3.20;;;7.40;99.90;;;;;;5053262;28;20041;-74
2023/04/11 04:24:16;;;;;;;9.47;3.00;;;7.50;99.90;;;;;;5053290;28;20036;-73
2023/04/11 04:26:42;;;;;;;11.13;3.23;;;7.50;99.90;;;;;;5068742;28;20079;-74
2023/04/11 04:29:08;;;;;;;10.40;3.10;;;7.50;99.90;;;;;;5068304;28;20082;-74
2023/04/11 04:31:35;;;;;;;9.40;3.10;;;7.60;99.90;;;;;;5054250;28;20060;-74
2023/04/11 04:34:09;;;;;;;11.67;3.27;;;7.50;99.90;;;;;;5052299;28;20037;-74
2023/04/11 04:36:47;;;;;;;9.77;2.73;;;7.60;99.90;;;;;;5054533;28;20111;-73
2023/04/11 04:39:17;;;;;;;8.57;3.13;;;7.60;99.90;;;;;;5052692;28;20045;-74
2023/04/11 04:41:47;;;;;;;8.13;3.23;;;7.60;99.90;;;;;;5067495;28;20040;-74
2023/04/11 04:44:17;;;;;;;8.73;3.03;;;7.60;99.90;;;;;;5053085;28;20110;-75
2023/04/11 04:46:43;;;;;;;12.20;3.10;;;7.60;99.90;;;;;;5053839;28;20048;-75
2023/04/11 04:49:09;;;;;;;9.40;3.07;;;7.70;99.90;;;;;;5053628;28;20085;-75
2023/04/11 04:51:36;;;;;;;6.37;3.20;;;7.70;99.90;;;;;;5053058;28;20110;-76
2023/04/11 04:54:03;;;;;;;12.27;4.13;;;7.70;99.90;;;;;;5052775;28;20041;-76
2023/04/11 04:56:30;;;;;;;7.37;3.10;;;7.70;99.90;;;;;;5054418;28;20501;-75
2023/04/11 04:58:56;;;;;;;8.67;2.93;;;7.70;99.90;;;;;;5052760;28;20049;-75
2023/04/11 05:01:25;;;;;;;14.77;3.97;;;7.70;99.90;;;;;;5053307;28;20049;-75
2023/04/11 05:03:57;;;;;;;12.20;3.37;;;7.70;99.90;;;;;;5052341;28;20045;-75
2023/04/11 05:06:30;;;;;;;;;;;7.70;99.90;;;;;;5050982;28;20049;-75
2023/04/11 05:09:01;;;;;;;9.17;3.47;;;7.70;99.90;;;;;;5052333;28;19928;-75
2023/04/11 05:11:27;;;;;;;12.53;3.30;;;7.70;99.90;;;;;;5050923;28;20049;-75
2023/04/11 05:13:54;;;;;;;6.07;2.50;;;7.70;99.90;;;;;;5050385;28;20063;-75
2023/04/11 05:16:20;;;;;;;9.33;3.30;;;7.70;99.90;;;;;;5051452;28;20152;-74
2023/04/11 05:18:46;;;;;;;7.20;3.20;;;7.70;99.90;;;;;;5050943;28;20244;-74
2023/04/11 05:21:13;;;;;;;9.97;3.10;;;7.70;99.90;;;;;;5052556;28;20044;-75
2023/04/11 05:23:39;;;;;;;14.33;3.50;;;7.70;99.90;;;;;;5051628;28;20409;-75
2023/04/11 05:26:06;;;;;;;7.97;3.03;;;7.70;99.90;;;;;;5052424;28;20045;-72
2023/04/11 05:28:33;;;;;;;8.37;2.90;;;7.70;99.90;;;;;;5051499;28;20148;-76
2023/04/11 05:30:59;;;;;;;7.77;2.60;;;7.80;99.90;;;;;;5052234;28;20122;-77
2023/04/11 05:33:26;;;;;;;10.77;3.10;;;7.80;99.90;;;;;;5052636;28;20124;-74
2023/04/11 05:35:52;;;;;;;10.67;3.47;;;7.80;99.90;;;;;;5052656;28;20397;-79
2023/04/11 05:38:19;;;;;;;9.80;2.87;;;7.80;99.90;;;;;;5034611;28;20040;-72
2023/04/11 05:40:45;;;;;;;7.53;2.87;;;7.80;99.90;;;;;;5050203;28;20048;-73
2023/04/11 05:43:13;;;;;;;6.53;2.80;;;7.80;99.90;;;;;;5052106;28;20128;-73
2023/04/11 05:45:46;;;;;;;13.90;4.10;;;7.80;99.90;;;;;;5034244;28;20076;-74
2023/04/11 05:48:15;;;;;;;11.73;3.27;;;7.80;99.90;;;;;;5044554;28;20084;-75
2023/04/11 05:50:41;;;;;;;9.80;2.87;;;7.80;99.90;;;;;;5043656;28;20106;-74
2023/04/11 05:53:07;;;;;;;6.17;2.70;;;7.80;99.90;;;;;;5047794;28;20044;-75
2023/04/11 05:55:33;;;;;;;9.87;3.37;;;7.80;99.90;;;;;;5052162;28;20094;-75
2023/04/11 05:57:58;;;;;;;6.90;3.27;;;7.80;99.90;;;;;;5051297;28;20053;-75
2023/04/11 06:00:27;;;;;;;10.40;2.53;;;7.80;99.90;;;;;;5053097;28;20037;-74
2023/04/11 06:02:53;;;;;;;8.40;3.20;;;7.80;99.90;;;;;;5050475;28;20131;-74
2023/04/11 06:05:20;;;;;;;6.23;2.67;;;7.80;99.90;;;;;;5051898;28;20052;-74
2023/04/11 06:07:45;;;;;;;9.10;2.93;;;7.80;99.90;;;;;;5066080;28;20416;-74
2023/04/11 06:10:11;;;;;;;8.97;3.33;;;7.80;99.90;;;;;;5051988;28;20048;-74
2023/04/11 06:12:37;;;;;;;11.37;2.97;;;7.90;99.90;;;;;;5051969;28;20049;-74
2023/04/11 06:15:03;;;;;;;9.13;2.60;;;7.90;99.90;;;;;;5052763;28;20163;-74
2023/04/11 06:17:29;;;;;;;7.53;2.90;;;7.90;99.90;;;;;;5055457;28;20049;-74
2023/04/11 06:19:55;;;;;;;9.50;3.13;;;7.90;99.90;;;;;;5054225;28;20044;-75
2023/04/11 06:22:21;;;;;;;12.00;2.93;;;7.90;99.90;;;;;;5038326;28;20052;-74
2023/04/11 06:24:47;;;;;;;7.80;3.30;;;8.00;99.90;;;;;;5055611;28;20051;-74
2023/04/11 06:27:13;;;;;;;10.67;3.03;;;8.00;99.90;;;;;;5056630;28;20040;-75
2023/04/11 06:29:40;;;;;;;9.87;3.07;;;8.00;99.90;;;;;;5056708;28;20056;-74
2023/04/11 06:32:07;;;;;;;11.07;2.80;;;8.00;99.90;;;;;;5054858;28;20293;-75
2023/04/11 06:34:33;;;;;;;8.47;3.07;;;8.00;99.90;;;;;;5058912;28;20041;-75
2023/04/11 06:36:59;;;;;;;10.97;2.93;;;8.00;99.90;;;;;;5038852;28;20167;-75
2023/04/11 06:39:24;;;;;;;7.00;2.80;;;8.00;99.90;;;;;;5055677;28;20174;-75
2023/04/11 06:41:50;;;;;;;8.83;3.50;;;8.00;99.90;;;;;;5056169;28;20033;-75
2023/04/11 06:44:16;;;;;;;10.93;3.50;;;8.00;99.90;;;;;;5056924;28;20039;-75
2023/04/11 06:46:42;;;;;;;10.37;3.70;;;8.10;99.90;;;;;;5037453;28;20045;-75
2023/04/11 06:49:08;;;;;;;8.47;3.67;;;8.10;99.90;;;;;;5055406;28;20045;-74
2023/04/11 06:51:35;;;;;;;9.77;4.13;;;8.10;99.90;;;;;;5055186;28;20037;-74
2023/04/11 06:54:01;;;;;;;9.17;3.07;;;8.20;99.90;;;;;;5054902;28;20036;-75
2023/04/11 06:56:27;;;;;;;7.40;3.47;;;8.20;99.90;;;;;;5039120;28;20049;-75
2023/04/11 06:58:53;;;;;;;12.00;3.87;;;8.20;99.90;;;;;;5054117;28;20048;-75
2023/04/11 07:01:20;;;;;;;10.00;4.07;;;8.20;99.90;;;;;;5056252;28;20049;-75
2023/04/11 07:03:46;;;;;;;10.40;4.20;;;8.30;99.90;;;;;;5055863;28;20430;-75
2023/04/11 07:06:12;;;;;;;11.60;3.43;;;8.20;99.90;;;;;;5055168;28;20045;-75
2023/04/11 07:08:38;;;;;;;13.80;3.37;;;8.20;99.90;;;;;;5056463;28;20049;-75
2023/04/11 07:11:04;;;;;;;9.40;2.90;;;8.10;99.90;;;;;;5054457;28;20048;-74
2023/04/11 07:13:30;;;;;;;14.27;3.20;;;8.10;99.90;;;;;;5055386;28;20080;-74
2023/04/11 07:15:55;;;;;;;11.63;3.83;;;8.10;99.90;;;;;;5037941;28;20044;-75
2023/04/11 07:18:21;;;;;;;13.27;2.93;;;8.20;99.90;;;;;;5055037;28;20037;-74
2023/04/11 07:20:47;;;;;;;16.67;3.63;;;8.30;99.90;;;;;;5020877;28;20450;-75
2023/04/11 07:23:13;;;;;;;9.93;2.87;;;8.40;99.90;;;;;;5056022;28;20110;-75
2023/04/11 07:25:39;;;;;;;7.93;2.37;;;8.40;99.90;;;;;;5055290;28;20041;-74
2023/04/11 07:28:07;;;;;;;9.93;3.20;;;8.50;99.90;;;;;;5053975;28;20091;-75
2023/04/11 07:30:34;;;;;;;11.20;2.83;;;8.60;99.90;;;;;;5039050;28;20385;-74
2023/04/11 07:33:01;;;;;;;10.80;3.53;;;8.70;99.90;;;;;;5055080;28;20045;-74
2023/04/11 07:35:27;;;;;;;11.13;2.80;;;8.80;99.90;;;;;;5054851;28;20396;-75
2023/04/11 07:37:53;;;;;;;11.20;3.00;;;9.00;99.90;;;;;;5053955;28;20493;-75
2023/04/11 07:40:19;;;;;;;8.13;2.63;;;9.10;99.90;;;;;;5056036;28;20049;-75
2023/04/11 07:42:45;;;;;;;6.93;2.70;;;9.20;99.90;;;;;;5037367;28;20075;-74
2023/04/11 07:45:11;;;;;;;12.17;2.63;;;9.20;99.90;;;;;;5054174;28;20033;-75
2023/04/11 07:47:37;;;;;;;10.03;2.63;;;9.20;99.90;;;;;;5054235;28;20055;-75
2023/04/11 07:50:06;;;;;;;9.77;2.17;;;9.10;99.90;;;;;;5055035;28;20573;-75
2023/04/11 07:52:32;;;;;;;11.97;2.60;;;9.10;99.90;;;;;;5037876;28;20100;-75
2023/04/11 07:54:58;;;;;;;15.80;2.67;;;9.10;99.90;;;;;;5053508;28;20299;-75
2023/04/11 07:57:23;;;;;;;13.13;3.17;;;9.00;99.90;;;;;;5046133;28;20057;-74
2023/04/11 07:59:49;;;;;;;11.70;2.80;;;9.00;99.90;;;;;;5054937;28;20056;-75
2023/04/11 08:02:15;;;;;;;13.73;3.10;;;9.00;99.90;;;;;;5037648;28;20037;-75
2023/04/11 08:04:41;;;;;;;8.37;2.83;;;9.00;99.90;;;;;;5037366;28;20076;-74
2023/04/11 08:07:06;;;;;;;12.37;2.50;;;9.00;99.90;;;;;;5037284;28;20482;-75
2023/04/11 08:09:33;;;;;;;10.60;2.60;;;8.90;99.90;;;;;;5054659;28;20052;-75
2023/04/11 08:12:00;;;;;;;7.27;2.27;;;8.90;99.90;;;;;;5054527;28;20064;-75
2023/04/11 08:14:26;;;;;;;7.57;2.10;;;8.80;99.90;;;;;;5070191;28;20124;-74
2023/04/11 08:16:52;;;;;;;5.00;1.60;;;8.70;99.90;;;;;;5054736;28;20049;-74
2023/04/11 08:19:18;;;;;;;5.40;2.10;;;8.50;99.90;;;;;;5053612;28;20098;-74
2023/04/11 08:21:44;;;;;;;9.67;2.30;;;8.30;99.90;;;;;;5055189;28;20041;-74
2023/04/11 08:24:09;;;;;;;7.47;2.47;;;8.20;99.90;;;;;;5053296;28;20051;-74
2023/04/11 08:26:35;;;;;;;9.40;2.47;;;8.20;99.90;;;;;;5055012;28;20072;-74
2023/04/11 08:29:02;;;;;;;8.77;2.83;;;8.20;99.90;;;;;;5052706;28;20106;-74
2023/04/11 08:31:28;;;;;;;8.80;2.67;;;8.20;99.90;;;;;;5053436;28;20048;-75
2023/04/11 08:33:54;;;;;;;7.93;2.43;;;8.20;99.90;;;;;;5054061;28;20041;-75
2023/04/11 08:36:20;;;;;;;9.10;2.43;;;8.40;99.90;;;;;;5054744;28;20064;-74
2023/04/11 08:38:46;;;;;;;7.77;2.80;;;8.60;99.90;;;;;;5054587;28;20090;-74
2023/04/11 08:41:13;;;;;;;11.30;2.63;;;8.70;99.90;;;;;;5035516;28;20049;-74
2023/04/11 08:43:39;;;;;;;10.50;2.40;;;8.60;99.90;;;;;;5054957;28;20053;-75
2023/04/11 08:46:11;;;;;;;8.77;2.50;;;8.60;99.90;;;;;;5051674;28;20044;-75
2023/04/11 08:48:37;;;;;;;12.33;2.53;;;8.70;99.90;;;;;;5051654;28;20087;-74
2023/04/11 08:51:03;;;;;;;10.33;2.70;;;8.70;99.90;;;;;;5053777;28;20052;-75
2023/04/11 08:53:29;;;;;;;9.93;2.47;;;8.70;99.90;;;;;;5052400;28;20128;-75
2023/04/11 08:55:55;;;;;;;13.13;2.97;;;8.80;99.90;;;;;;5054039;28;20052;-75
2023/04/11 08:58:21;;;;;;;12.50;3.40;;;8.90;99.90;;;;;;5053823;28;20040;-75
2023/04/11 09:00:47;;;;;;;9.27;2.40;;;9.00;99.90;;;;;;5052985;28;20049;-75
2023/04/11 09:03:15;;;;;;;9.10;2.40;;;9.00;99.90;;;;;;5035403;28;20055;-75
2023/04/11 09:05:45;;;;;;;7.13;2.17;;;8.90;99.90;;;;;;5053694;28;20132;-75
2023/04/11 09:08:13;;;;;;;10.23;2.70;;;8.80;99.90;;;;;;5053132;28;20033;-75
2023/04/11 09:10:41;;;;;;;9.40;2.60;;;8.60;99.90;;;;;;5052479;28;20055;-75
2023/04/11 09:13:27;;;;;;;8.00;2.37;;;8.40;99.90;;;;;;5055568;28;20122;-75
2023/04/11 09:16:13;;;;;;;9.43;2.40;;;8.40;99.90;;;;;;5050367;28;20052;-74
2023/04/11 09:18:41;;;;;;;9.33;2.93;;;8.30;99.90;;;;;;5049323;28;20079;-75
2023/04/11 09:21:14;;;;;;;8.53;2.97;;;8.30;99.90;;;;;;5052656;28;20465;-75
2023/04/11 09:23:40;;;;;;;6.57;1.80;;;8.40;99.90;;;;;;5053616;28;20147;-75
2023/04/11 09:26:10;;;;;;;5.80;1.80;;;8.40;99.90;;;;;;5052283;28;20067;-75
2023/04/11 09:28:41;;;;;;;4.60;1.63;;;8.40;99.90;;;;;;5051748;28;20056;-76
2023/04/11 09:31:08;;;;;;;5.88;1.60;;;8.50;99.90;;;;;;5052430;28;20059;-75
2023/04/11 09:33:34;;;;;;;6.87;1.90;;;8.50;99.90;;;;;;5051549;28;20104;-75
2023/04/11 09:36:07;;;;;;;5.90;1.63;;;8.70;99.90;;;;;;5053139;28;20064;-75
2023/04/11 09:38:34;;;;;;;8.70;2.10;;;9.00;99.90;;;;;;5051403;28;20044;-75
2023/04/11 09:41:02;;;;;;;8.30;1.77;;;9.20;99.90;;;;;;5035441;28;20105;-75
2023/04/11 09:43:50;;;;;;;5.57;2.07;;;9.30;99.90;;;;;;5053516;28;20045;-75
2023/04/11 09:46:19;;;;;;;4.67;1.50;;;9.30;99.90;;;;;;5050383;28;20047;-75
2023/04/11 09:48:48;;;;;;;5.63;2.30;;;9.10;99.90;;;;;;5049670;28;20079;-75
2023/04/11 09:51:16;;;;;;;4.77;1.60;;;8.90;99.90;;;;;;5034585;28;20056;-75
2023/04/11 09:53:42;;;;;;;3.93;1.57;;;8.80;99.90;;;;;;5051600;28;20047;-75
2023/04/11 09:56:08;;;;;;;7.63;1.73;;;8.70;99.90;;;;;;5053932;28;20041;-75
2023/04/11 09:58:36;;;;;;;4.83;1.23;;;8.70;99.90;;;;;;5051620;28;20598;-75
2023/04/11 10:01:03;;;;;;;4.30;1.67;;;8.50;99.90;;;;;;5052693;28;20056;-75
2023/04/11 10:03:33;;;;;;;5.27;1.47;;;8.40;99.90;;;;;;5052867;28;20057;-74
2023/04/11 10:06:01;;;;;;;3.87;1.30;;;8.30;99.90;;;;;;5035390;28;20114;-74
2023/04/11 10:08:31;;;;;;;5.97;1.80;;;8.20;99.90;;;;;;5051836;28;20568;-74
2023/04/11 10:10:59;;;;;;;5.23;1.83;;;8.20;99.90;;;;;;5052841;28;20083;-74
2023/04/11 10:13:41;;;;;;;5.27;2.00;;;8.10;99.90;;;;;;5053086;28;20171;-74
2023/04/11 10:16:21;;;;;;;10.00;2.40;;;8.20;99.90;;;;;;5052412;28;20045;-74
2023/04/11 10:18:52;;;;;;;6.50;2.33;;;8.20;99.90;;;;;;5047408;28;20045;-74
2023/04/11 10:21:41;;;;;;;7.80;1.90;;;8.20;99.90;;;;;;5052482;28;20041;-74
2023/04/11 10:24:14;;;;;;;6.40;2.10;;;8.20;99.90;;;;;;5039668;28;20723;-74
2023/04/11 10:26:49;;;;;;;5.00;1.70;;;8.20;99.90;;;;;;5051863;28;20068;-75
2023/04/11 10:29:47;;;;;;;5.67;1.50;;;8.30;99.90;;;;;;5040132;28;20049;-75
2023/04/11 10:32:16;;;;;;;9.23;3.00;;;8.40;99.90;;;;;;5045903;28;20064;-75
2023/04/11 10:34:53;;;;;;;8.37;2.20;;;8.60;99.90;;;;;;5042840;28;20045;-74
2023/04/11 10:37:32;;;;;;;7.93;2.10;;;8.90;99.90;;;;;;5050522;28;20045;-74
2023/04/11 10:40:00;;;;;;;10.07;2.47;;;9.30;99.90;;;;;;5048941;28;20037;-74
2023/04/11 10:42:33;;;;;;;10.07;2.47;;;9.60;99.90;;;;;;5067383;28;20055;-74
2023/04/11 10:45:26;;;;;;;9.00;2.43;;;9.90;99.90;;;;;;5049833;28;20048;-75
2023/04/11 10:47:55;;;;;;;7.60;2.23;;;10.10;99.90;;;;;;5050032;28;20060;-74
2023/04/11 10:50:33;;;;;;;8.83;2.00;;;10.30;99.90;;;;;;5050487;28;20095;-73
2023/04/11 10:53:07;;;;;;;5.50;1.83;;;10.60;99.90;;;;;;5050982;28;20053;-74
2023/04/11 10:55:47;;;;;;;8.33;2.10;;;10.90;99.90;;;;;;5050775;28;20048;-75
2023/04/11 10:58:21;;;;;;;5.30;1.80;;;11.10;99.90;;;;;;5034261;28;20045;-75
2023/04/11 11:00:49;;;;;;;5.17;1.73;;;11.20;99.90;;;;;;5052261;28;20053;-75
2023/04/11 11:03:19;;;;;;;7.50;2.50;;;11.40;99.90;;;;;;5055338;28;20053;-75
2023/04/11 11:05:46;;;;;;;8.50;2.27;;;11.30;99.90;;;;;;5054617;28;20154;-74
2023/04/11 11:08:12;;;;;;;6.83;1.90;;;11.00;99.90;;;;;;5054182;28;20056;-75
2023/04/11 11:10:45;;;;;;;6.60;1.90;;;10.70;99.90;;;;;;5053007;28;20053;-75
2023/04/11 11:13:14;;;;;;;6.57;2.10;;;10.30;99.90;;;;;;5055014;28;20041;-74
2023/04/11 11:15:46;;;;;;;10.43;2.17;;;10.00;99.90;;;;;;5053899;28;20041;-74
2023/04/11 11:18:14;;;;;;;7.17;1.90;;;9.80;99.90;;;;;;5054848;28;20098;-74
2023/04/11 11:20:40;;;;;;;7.37;2.00;;;9.60;99.90;;;;;;5053892;28;20041;-74
2023/04/11 11:23:08;;;;;;;5.53;1.50;;;9.40;99.90;;;;;;5056319;28;20056;-74
2023/04/11 11:25:34;;;;;;;4.23;1.47;;;9.20;99.90;;;;;;5054583;28;20045;-74
2023/04/11 11:28:01;;;;;;;4.63;1.73;;;9.20;99.90;;;;;;5055311;28;20251;-74
2023/04/11 11:30:27;;;;;;;5.10;1.67;;;9.20;99.90;;;;;;5054610;28;20106;-74
2023/04/11 11:32:53;;;;;;;7.07;2.20;;;9.20;99.90;;;;;;5054073;28;20040;-75
2023/04/11 11:35:19;;;;;;;7.30;1.70;;;9.20;99.90;;;;;;5054571;28;20096;-75
2023/04/11 11:37:45;;;;;;;4.00;1.20;;;9.20;99.90;;;;;;5052403;28;20566;-74
2023/04/11 11:40:11;;;;;;;4.57;1.30;;;9.00;99.90;;;;;;5055594;28;20029;-73
2023/04/11 11:42:40;;;;;;;5.17;1.40;;;8.90;99.90;;;;;;5055123;28;20175;-74
2023/04/11 11:45:20;;;;;;;9.17;1.80;;;8.80;99.90;;;;;;5055066;28;20037;-74
2023/04/11 11:47:47;;;;;;;5.63;1.70;;;8.80;99.90;;;;;;5054890;28;20136;-74
2023/04/11 11:50:30;;;;;;;9.93;2.30;;;8.90;99.90;;;;;;5053331;28;20051;-74
2023/04/11 11:53:13;;;;;;;8.47;1.83;;;9.40;99.90;;;;;;5053516;28;20049;-75
2023/04/11 11:55:40;;;;;;;7.80;2.30;;;9.80;99.90;;;;;;5044958;28;20053;-74
2023/04/11 11:58:06;;;;;;;8.97;1.90;;;9.90;99.90;;;;;;5055222;28;20049;-74
2023/04/11 12:00:37;;;;;;;8.77;2.30;;;9.70;99.90;;;;;;5055994;28;20070;-75
2023/04/11 12:03:03;;;;;;;4.03;1.80;;;9.50;99.90;;;;;;5056569;28;20108;-74
2023/04/11 12:05:33;;;;;;;9.10;2.07;;;9.50;99.90;;;;;;5053590;28;20105;-75
2023/04/11 12:08:03;;;;;;;7.30;1.97;;;9.50;99.90;;;;;;5054341;28;20146;-75
2023/04/11 12:10:40;;;;;;;5.93;2.27;;;9.50;99.90;;;;;;5053577;28;20511;-75
2023/04/11 12:13:15;;;;;;;11.27;2.40;;;9.80;99.90;;;;;;5036800;28;20096;-75
2023/04/11 12:15:45;;;;;;;7.93;2.30;;;10.00;99.90;;;;;;5054190;28;20072;-75
2023/04/11 12:18:11;;;;;;;9.43;2.23;;;10.30;99.90;;;;;;5036568;28;20049;-74
2023/04/11 12:20:36;;;;;;;8.70;2.10;;;10.60;99.90;;;;;;5036002;28;20045;-74
2023/04/11 12:23:02;;;;;;;12.97;2.43;;;10.70;99.90;;;;;;5054273;28;20061;-75
2023/04/11 12:25:29;;;;;;;8.07;2.10;;;10.80;99.90;;;;;;5052959;28;20041;-75
2023/04/11 12:27:54;;;;;;;9.40;2.43;;;10.80;99.90;;;;;;5054389;28;20079;-75
2023/04/11 12:30:20;;;;;;;12.23;2.50;;;11.00;99.90;;;;;;5054951;28;20045;-75
2023/04/11 12:32:46;;;;;;;9.60;2.03;;;10.90;99.90;;;;;;5053625;28;20078;-74
2023/04/11 12:35:12;;;;;;;9.47;2.40;;;10.80;99.90;;;;;;5053007;28;20108;-75
2023/04/11 12:37:38;;;;;;;8.00;1.90;;;10.50;99.90;;;;;;5051841;28;20411;-75
2023/04/11 12:40:14;;;;;;;8.50;2.17;;;10.40;99.90;;;;;;5053584;28;20059;-75
2023/04/11 12:42:41;;;;;;;8.27;2.27;;;10.20;99.90;;;;;;5053710;28;20060;-74
2023/04/11 12:45:09;;;;;;;10.00;2.30;;;10.20;99.90;;;;;;5051687;28;20136;-74
2023/04/11 12:47:35;;;;;;;8.40;2.13;;;10.20;99.90;;;;;;5051868;28;20071;-74
2023/04/11 12:50:02;;;;;;;9.83;2.40;;;10.40;99.90;;;;;;5051212;28;20041;-74
2023/04/11 12:52:28;;;;;;;10.47;2.60;;;10.50;99.90;;;;;;5051335;28;20114;-75
2023/04/11 12:54:54;;;;;;;8.03;2.30;;;10.80;99.90;;;;;;5067584;28;20080;-75
2023/04/11 12:57:20;;;;;;;7.20;2.20;;;10.80;99.90;;;;;;5019080;28;20297;-75